Time;durP1;ratioP1;P1;durP2;ratioP2;P2;SDS_P1;SDS_P2;PMS_P1;PMS_P2;Temp;Humidity;BMP_temperature;BMP_pressure;BME280_temperature;BME280_humidity;BME280_pressure;Samples;Min_cycle;Max_cycle;Signal;HPM_P1;HPM_P2
2024/02/27 00:02:18;;;;;;;51.70;20.30;;;;;;;7.15;54.42;100832.89;108019;1254;70448;-66
2024/02/27 00:04:48;;;;;;;44.80;20.30;;;;;;;6.89;55.28;100833.70;108068;1254;71193;-66
2024/02/27 00:07:14;;;;;;;38.20;17.30;;;;;;;7.03;54.98;100834.60;108055;1254;61304;-67
2024/02/27 00:09:44;;;;;;;50.40;22.10;;;;;;;6.92;54.93;100831.58;108089;1254;59564;-67
2024/02/27 00:12:11;;;;;;;45.00;22.20;;;;;;;6.95;54.83;100829.79;108092;1254;76409;-66
2024/02/27 00:14:38;;;;;;;49.80;22.50;;;;;;;7.07;54.54;100827.05;108018;1258;68762;-66
2024/02/27 00:17:04;;;;;;;53.80;22.30;;;;;;;7.11;54.38;100824.73;108030;1254;71661;-67
2024/02/27 00:19:31;;;;;;;53.80;22.90;;;;;;;7.07;54.38;100828.45;107936;1256;60543;-67
2024/02/27 00:21:58;;;;;;;47.00;20.80;;;;;;;6.96;54.63;100835.90;107847;1256;60459;-65
2024/02/27 00:24:25;;;;;;;57.50;22.40;;;;;;;6.92;54.37;100841.34;107872;1260;73558;-67
2024/02/27 00:26:52;;;;;;;43.60;21.10;;;;;;;6.92;54.39;100843.80;107977;1256;70620;-67
2024/02/27 00:29:18;;;;;;;40.30;17.60;;;;;;;6.89;54.49;100840.67;107900;1256;72452;-67
2024/02/27 00:31:45;;;;;;;53.50;21.40;;;;;;;6.67;54.79;100840.03;107865;1256;60316;-67
2024/02/27 00:34:12;;;;;;;41.00;19.10;;;;;;;6.62;54.85;100838.16;108000;1254;60551;-68
2024/02/27 00:36:38;;;;;;;41.10;19.80;;;;;;;6.61;54.97;100839.75;108034;1254;74246;-67
2024/02/27 00:39:05;;;;;;;46.90;20.70;;;;;;;6.56;54.97;100833.86;107996;1254;70760;-67
2024/02/27 00:41:31;;;;;;;41.20;18.50;;;;;;;6.62;54.92;100828.56;107990;1255;73190;-66
2024/02/27 00:43:58;;;;;;;43.20;21.00;;;;;;;6.52;55.14;100828.48;107599;1262;61158;-65
2024/02/27 00:46:25;;;;;;;41.40;20.20;;;;;;;6.45;55.42;100823.14;108038;1254;60292;-66
2024/02/27 00:48:52;;;;;;;47.30;20.20;;;;;;;6.31;55.52;100822.73;108046;1254;74098;-67
2024/02/27 00:51:18;;;;;;;41.80;18.80;;;;;;;6.45;55.34;100815.30;108047;1258;68911;-66
2024/02/27 00:53:45;;;;;;;37.10;17.90;;;;;;;6.54;55.27;100811.89;107965;1254;60511;-66
2024/02/27 00:56:11;;;;;;;33.40;17.00;;;;;;;6.56;55.16;100810.67;108143;1254;61326;-65
2024/02/27 00:58:38;;;;;;;40.60;18.10;;;;;;;6.44;55.30;100812.16;108037;1254;60313;-67
2024/02/27 01:01:05;;;;;;;40.20;18.00;;;;;;;6.36;55.56;100818.86;108036;1258;74550;-67
2024/02/27 01:03:32;;;;;;;51.30;21.70;;;;;;;6.34;55.65;100820.96;108025;1257;69724;-68
2024/02/27 01:05:58;;;;;;;45.40;20.70;;;;;;;6.40;55.38;100819.36;108085;1257;72528;-67
2024/02/27 01:08:25;;;;;;;39.40;17.20;;;;;;;6.39;55.43;100821.10;108064;1254;61017;-66
2024/02/27 01:10:52;;;;;;;44.50;20.50;;;;;;;6.38;55.37;100814.30;107909;1254;60317;-66
2024/02/27 01:13:19;;;;;;;38.80;18.90;;;;;;;6.39;55.54;100811.86;108065;1254;75520;-67
2024/02/27 01:15:45;;;;;;;47.50;19.60;;;;;;;6.37;55.68;100810.48;108094;1254;70538;-67
2024/02/27 01:18:12;;;;;;;47.20;18.50;;;;;;;6.47;55.51;100809.17;108070;1254;72707;-67
2024/02/27 01:20:39;;;;;;;44.40;19.40;;;;;;;6.49;55.33;100809.48;107936;1254;61208;-68
2024/02/27 01:23:06;;;;;;;48.70;21.00;;;;;;;6.47;55.17;100807.59;108056;1254;60547;-67
2024/02/27 01:25:32;;;;;;;47.30;20.70;;;;;;;6.45;55.10;100807.79;108052;1254;73694;-67
2024/02/27 01:27:59;;;;;;;45.30;19.40;;;;;;;6.50;55.13;100805.65;107987;1254;70149;-67
2024/02/27 01:30:26;;;;;;;40.40;17.50;;;;;;;6.47;54.99;100805.15;108045;1254;73095;-66
2024/02/27 01:32:52;;;;;;;45.00;19.00;;;;;;;6.56;55.09;100804.55;108034;1254;61045;-67
2024/02/27 01:35:19;;;;;;;45.00;20.60;;;;;;;6.60;54.70;100805.20;108030;1254;60448;-67
2024/02/27 01:37:46;;;;;;;39.30;18.70;;;;;;;6.60;54.75;100805.38;108123;1254;74134;-67
2024/02/27 01:40:13;;;;;;;41.40;18.70;;;;;;;6.49;55.03;100808.45;108067;1258;70832;-66
2024/02/27 01:42:44;;;;;;;49.30;19.40;;;;;;;6.63;54.91;100809.02;108069;1258;72634;-67
2024/02/27 01:45:18;;;;;;;42.80;20.70;;;;;;;6.44;55.22;100810.77;108048;1256;61176;-65
2024/02/27 01:47:46;;;;;;;43.40;18.50;;;;;;;6.35;55.69;100809.63;108079;1254;60437;-65
2024/02/27 01:50:14;;;;;;;43.10;19.10;;;;;;;6.25;55.74;100811.63;108053;1254;72667;-66
2024/02/27 01:52:45;;;;;;;46.50;20.80;;;;;;;6.34;55.66;100817.30;107920;1260;70738;-65
2024/02/27 01:55:12;;;;;;;40.50;19.10;;;;;;;6.34;55.48;100817.14;108086;1254;72609;-66
2024/02/27 01:57:40;;;;;;;45.70;21.90;;;;;;;6.35;55.24;100818.52;107673;1254;61035;-66
2024/02/27 02:00:09;;;;;;;51.30;22.40;;;;;;;6.35;55.12;100812.24;108056;1254;60770;-65
2024/02/27 02:02:43;;;;;;;39.90;18.10;;;;;;;6.28;55.27;100821.38;108057;1256;73753;-67
2024/02/27 02:05:09;;;;;;;;;;;;;;;6.23;55.75;100822.27;108055;1254;70353;-68
2024/02/27 02:07:38;;;;;;;48.50;22.20;;;;;;;6.32;55.60;100824.11;107991;1254;60481;-65
2024/02/27 02:10:10;;;;;;;42.00;19.00;;;;;;;6.29;55.46;100822.75;108067;1254;61215;-66
2024/02/27 02:12:36;;;;;;;41.90;20.00;;;;;;;6.32;55.59;100822.55;108098;1255;60409;-65
2024/02/27 02:15:05;;;;;;;45.90;22.30;;;;;;;6.22;55.67;100822.29;108053;1254;73856;-66
2024/02/27 02:17:33;;;;;;;49.60;21.60;;;;;;;6.18;55.61;100820.58;108081;1254;69414;-67
2024/02/27 02:20:00;;;;;;;50.70;22.40;;;;;;;6.24;55.33;100825.06;107918;1257;72750;-66
2024/02/27 02:22:26;;;;;;;40.30;18.90;;;;;;;6.25;55.44;100827.15;108061;1258;60578;-67
2024/02/27 02:24:53;;;;;;;51.20;22.20;;;;;;;6.22;55.58;100824.38;108051;1257;60441;-67
2024/02/27 02:27:23;;;;;;;46.20;20.40;;;;;;;6.22;55.50;100832.92;107877;1256;74315;-67
2024/02/27 02:29:51;;;;;;;42.30;18.00;;;;;;;6.22;55.25;100834.66;107693;1256;68976;-67
2024/02/27 02:32:17;;;;;;;47.50;21.30;;;;;;;6.08;56.03;100833.90;107928;1256;73236;-67
2024/02/27 02:34:45;;;;;;;56.20;22.50;;;;;;;6.08;55.74;100838.43;108002;1254;61209;-65
2024/02/27 02:37:11;;;;;;;46.70;21.50;;;;;;;6.09;55.79;100843.83;108025;1254;60438;-64
2024/02/27 02:39:38;;;;;;;40.70;18.90;;;;;;;6.14;55.60;100844.33;107965;1256;74167;-66
2024/02/27 02:42:06;;;;;;;51.80;21.20;;;;;;;6.15;55.42;100846.41;108104;1257;68839;-65
2024/02/27 02:44:33;;;;;;;43.60;19.30;;;;;;;6.17;55.37;100843.95;108093;1255;71448;-62
2024/02/27 02:47:00;;;;;;;48.50;22.10;;;;;;;6.17;55.32;100838.02;108042;1254;61162;-67
2024/02/27 02:49:27;;;;;;;45.50;21.50;;;;;;;6.27;55.11;100836.72;108010;1257;60431;-67
2024/02/27 02:51:54;;;;;;;52.90;21.60;;;;;;;6.29;54.93;100839.32;108051;1255;74513;-67
2024/02/27 02:54:20;;;;;;;42.70;20.70;;;;;;;6.32;54.97;100832.84;108010;1256;70882;-66
2024/02/27 02:56:47;;;;;;;48.20;21.70;;;;;;;6.28;54.98;100839.16;108058;1254;72391;-66
2024/02/27 02:59:14;;;;;;;45.90;20.90;;;;;;;6.12;55.26;100842.06;107981;1255;61147;-66
2024/02/27 03:01:40;;;;;;;44.30;19.60;;;;;;;6.22;55.04;100839.21;108017;1255;60300;-66
2024/02/27 03:04:09;;;;;;;46.90;19.70;;;;;;;6.11;55.07;100834.57;108008;1254;74173;-66
2024/02/27 03:06:36;;;;;;;53.10;20.20;;;;;;;6.06;55.20;100833.56;108028;1256;69279;-67
2024/02/27 03:09:02;;;;;;;42.90;18.60;;;;;;;6.16;55.15;100838.20;107990;1257;72454;-67
2024/02/27 03:11:29;;;;;;;46.30;20.10;;;;;;;6.25;54.75;100838.81;108000;1256;60950;-65
2024/02/27 03:13:56;;;;;;;43.50;18.50;;;;;;;6.23;54.73;100839.38;108022;1256;60399;-66
2024/02/27 03:16:23;;;;;;;49.70;20.90;;;;;;;6.39;54.30;100838.20;108007;1255;74122;-66
2024/02/27 03:18:49;;;;;;;42.20;19.60;;;;;;;6.33;54.16;100841.89;108021;1258;70915;-66
2024/02/27 03:21:16;;;;;;;49.40;21.60;;;;;;;6.26;54.28;100847.20;108020;1257;73035;-66
2024/02/27 03:23:43;;;;;;;40.50;20.10;;;;;;;6.25;54.49;100846.84;108045;1254;60827;-66
2024/02/27 03:26:15;;;;;;;38.40;19.20;;;;;;;6.23;54.31;100842.16;108033;1256;60444;-64
2024/02/27 03:28:42;;;;;;;40.90;19.80;;;;;;;6.30;54.41;100842.80;108048;1254;73633;-65
2024/02/27 03:31:10;;;;;;;41.10;18.50;;;;;;;6.50;53.64;100848.39;108008;1257;70893;-65
2024/02/27 03:33:36;;;;;;;40.20;17.80;;;;;;;6.51;53.49;100850.98;107994;1254;73008;-66
2024/02/27 03:36:04;;;;;;;49.40;21.20;;;;;;;6.53;53.41;100846.61;108042;1256;61945;-66
2024/02/27 03:38:31;;;;;;;43.50;19.00;;;;;;;6.50;53.51;100846.46;108042;1258;60409;-65
2024/02/27 03:40:58;;;;;;;43.70;18.40;;;;;;;6.35;53.66;100847.30;108021;1257;74273;-66
2024/02/27 03:43:25;;;;;;;46.70;19.70;;;;;;;6.40;53.61;100850.39;107902;1257;69882;-66
2024/02/27 03:45:51;;;;;;;50.30;20.10;;;;;;;6.44;53.38;100850.88;107859;1257;73256;-65
2024/02/27 03:48:18;;;;;;;45.60;21.90;;;;;;;6.43;53.13;100850.89;107983;1254;60462;-67
2024/02/27 03:50:45;;;;;;;44.70;20.20;;;;;;;6.44;52.92;100852.98;107966;1254;60480;-66
2024/02/27 03:53:12;;;;;;;44.30;20.40;;;;;;;6.39;53.07;100855.98;108061;1255;74221;-64
2024/02/27 03:55:38;;;;;;;47.00;20.20;;;;;;;6.38;53.12;100858.61;108033;1255;69755;-67
2024/02/27 03:58:05;;;;;;;54.60;18.90;;;;;;;6.37;52.98;100855.48;108078;1256;72959;-66
2024/02/27 04:00:32;;;;;;;46.10;20.90;;;;;;;6.24;53.00;100859.94;108077;1256;61655;-67
2024/02/27 04:02:58;;;;;;;49.70;20.10;;;;;;;6.32;52.90;100858.13;108049;1257;60428;-66
2024/02/27 04:05:25;;;;;;;48.80;20.80;;;;;;;6.24;52.81;100856.09;108060;1254;74069;-66
2024/02/27 04:07:52;;;;;;;44.20;18.70;;;;;;;6.17;53.09;100858.42;108112;1257;68972;-67
2024/02/27 04:10:19;;;;;;;34.10;17.10;;;;;;;6.04;53.36;100854.33;108071;1255;72288;-66
2024/02/27 04:12:46;;;;;;;55.90;20.20;;;;;;;6.03;53.32;100855.38;108067;1256;61040;-68
2024/02/27 04:15:12;;;;;;;42.80;19.70;;;;;;;6.04;53.30;100858.69;108064;1259;61483;-66
2024/02/27 04:17:39;;;;;;;54.40;20.20;;;;;;;6.11;52.97;100860.73;108073;1257;73661;-67
2024/02/27 04:20:06;;;;;;;53.20;19.00;;;;;;;6.11;52.91;100867.88;108068;1258;68806;-66
2024/02/27 04:22:33;;;;;;;37.50;17.10;;;;;;;6.07;52.88;100867.90;108052;1256;73411;-67
2024/02/27 04:24:59;;;;;;;40.30;18.40;;;;;;;6.02;52.93;100869.69;108079;1257;61486;-68
2024/02/27 04:27:26;;;;;;;49.60;20.30;;;;;;;5.96;53.35;100873.37;108123;1257;60302;-66
2024/02/27 04:29:52;;;;;;;44.40;18.50;;;;;;;5.88;53.32;100882.45;108086;1257;60441;-66
2024/02/27 04:32:19;;;;;;;46.60;20.10;;;;;;;5.81;53.50;100887.02;107973;1257;70173;-66
2024/02/27 04:34:46;;;;;;;46.50;20.80;;;;;;;5.82;53.55;100887.02;108025;1258;72851;-67
2024/02/27 04:37:13;;;;;;;47.50;21.20;;;;;;;5.94;53.12;100886.10;107910;1257;61770;-67
2024/02/27 04:39:43;;;;;;;57.40;21.50;;;;;;;5.98;53.01;100885.91;108036;1258;60322;-66
2024/02/27 04:42:09;;;;;;;53.70;22.20;;;;;;;6.00;52.94;100884.68;108011;1258;72339;-65
2024/02/27 04:46:35;;;;;;;50.90;21.50;;;;;;;4.20;57.41;100902.35;104869;1289;600412;-68
2024/02/27 04:49:02;;;;;;;57.20;22.50;;;;;;;5.14;54.84;100899.31;107282;1266;60870;-66
2024/02/27 04:51:30;;;;;;;50.90;23.50;;;;;;;5.13;54.97;100902.43;107272;1264;59287;-66
2024/02/27 04:53:58;;;;;;;53.00;22.60;;;;;;;5.04;55.25;100900.02;107355;1264;70946;-67
2024/02/27 04:56:25;;;;;;;45.10;20.30;;;;;;;4.98;55.29;100907.69;107294;1265;70323;-66
2024/02/27 04:58:53;;;;;;;49.70;21.70;;;;;;;5.13;55.03;100907.50;107277;1270;72740;-66
2024/02/27 05:01:20;;;;;;;44.90;22.60;;;;;;;5.08;55.24;100910.62;107290;1262;141834;-66
2024/02/27 05:03:48;;;;;;;55.40;26.60;;;;;;;5.06;55.07;100913.23;108136;1253;59994;-67
2024/02/27 05:06:16;;;;;;;56.60;23.90;;;;;;;5.08;55.07;100915.67;108083;1253;70733;-66
2024/02/27 05:08:43;;;;;;;40.70;19.50;;;;;;;5.21;54.81;100921.75;108076;1253;70057;-67
2024/02/27 05:11:11;;;;;;;46.00;21.00;;;;;;;5.13;54.99;100923.66;108065;1253;72813;-66
2024/02/27 05:13:39;;;;;;;38.50;18.20;;;;;;;5.13;54.94;100923.85;108011;1259;59877;-67
2024/02/27 05:16:07;;;;;;;45.20;20.20;;;;;;;5.31;54.65;100925.55;108064;1253;60004;-65
2024/02/27 05:18:34;;;;;;;43.70;18.20;;;;;;;5.31;54.40;100925.55;108059;1253;71092;-65
2024/02/27 05:21:05;;;;;;;52.00;21.00;;;;;;;5.39;54.41;100926.73;108086;1253;67962;-66
2024/02/27 05:23:33;;;;;;;58.30;22.60;;;;;;;5.45;54.12;100926.02;108045;1253;71391;-67
2024/02/27 05:26:01;;;;;;;43.50;20.30;;;;;;;5.45;54.06;100930.55;108036;1254;61020;-67
2024/02/27 05:28:28;;;;;;;42.30;17.60;;;;;;;5.49;54.06;100932.63;108106;1253;59965;-67
2024/02/27 05:30:56;;;;;;;39.70;18.40;;;;;;;5.56;53.99;100936.95;108127;1258;71058;-65
2024/02/27 05:33:23;;;;;;;32.00;15.80;;;;;;;5.51;54.18;100937.33;108036;1254;69369;-66
2024/02/27 05:35:51;;;;;;;39.50;17.40;;;;;;;5.45;54.20;100937.35;107810;1256;72465;-66
2024/02/27 05:38:18;;;;;;;31.40;16.00;;;;;;;5.66;53.47;100939.02;107798;1256;60615;-67
2024/02/27 05:40:46;;;;;;;40.70;17.90;;;;;;;5.87;53.52;100938.42;107723;1256;59437;-67
2024/02/27 05:43:13;;;;;;;37.00;16.70;;;;;;;5.98;53.45;100938.20;107744;1256;73078;-68
2024/02/27 05:45:41;;;;;;;34.60;16.10;;;;;;;6.01;52.91;100944.11;108025;1253;69962;-66
2024/02/27 05:48:09;;;;;;;36.30;18.00;;;;;;;6.06;52.51;100942.52;108059;1253;72443;-67
2024/02/27 05:50:37;;;;;;;40.40;16.80;;;;;;;6.17;52.30;100947.34;108055;1253;59699;-67
2024/02/27 05:53:05;;;;;;;32.80;16.30;;;;;;;6.20;52.04;100946.64;107968;1253;60074;-65
2024/02/27 05:55:32;;;;;;;38.70;15.70;;;;;;;6.38;51.77;100945.64;108097;1252;71767;-65
2024/02/27 05:58:01;;;;;;;28.70;14.80;;;;;;;6.64;51.68;100950.52;108036;1253;67708;-66
2024/02/27 06:00:28;;;;;;;35.90;15.50;;;;;;;6.78;51.69;100958.61;108053;1254;71842;-67
2024/02/27 06:02:56;;;;;;;36.70;15.10;;;;;;;7.16;51.57;100949.17;108051;1253;59988;-66
2024/02/27 06:05:24;;;;;;;27.50;14.30;;;;;;;7.54;50.66;100951.23;108202;1253;61401;-67
2024/02/27 06:07:51;;;;;;;33.90;14.30;;;;;;;7.64;49.34;100954.79;108064;1253;72602;-67
2024/02/27 06:10:19;;;;;;;31.60;13.80;;;;;;;7.84;48.71;100954.20;108111;1253;69273;-67
2024/02/27 06:12:46;;;;;;;30.00;13.40;;;;;;;8.11;48.00;100960.13;108075;1253;72826;-67
2024/02/27 06:15:14;;;;;;;39.30;14.40;;;;;;;8.28;47.55;100964.27;108115;1253;59625;-65
2024/02/27 06:17:42;;;;;;;29.70;14.20;;;;;;;8.61;47.46;100967.49;107980;1253;60198;-67
2024/02/27 06:22:10;;;;;;;35.50;14.70;;;;;;;8.99;46.56;100972.29;108045;1252;71772;-67
2024/02/27 06:22:57;;;;;;;33.30;13.80;;;;;;;9.25;45.85;100973.95;108126;1252;69923;-67
2024/02/27 06:25:25;;;;;;;32.80;12.90;;;;;;;9.46;44.83;100971.63;108133;1253;71301;-66
2024/02/27 06:27:53;;;;;;;32.10;14.10;;;;;;;9.62;44.11;100974.30;108147;1253;60960;-67
2024/02/27 06:30:20;;;;;;;33.00;14.00;;;;;;;9.62;43.93;100974.48;108064;1253;59513;-66
2024/02/27 06:32:47;;;;;;;29.10;12.50;;;;;;;9.62;43.80;100979.05;108008;1253;72239;-67
2024/02/27 06:35:15;;;;;;;27.40;12.20;;;;;;;9.91;43.58;100976.36;108076;1253;70719;-68
2024/02/27 06:37:42;;;;;;;22.00;11.00;;;;;;;10.03;43.32;100974.17;107995;1253;71169;-68
2024/02/27 06:40:11;;;;;;;33.60;13.20;;;;;;;10.34;43.14;100973.34;108010;1253;62081;-68
2024/02/27 06:42:38;;;;;;;29.40;13.20;;;;;;;10.59;42.37;100966.11;108112;1253;59720;-67
2024/02/27 06:45:08;;;;;;;27.40;12.80;;;;;;;10.76;41.91;100970.45;108020;1253;73051;-67
2024/02/27 06:47:41;;;;;;;23.60;11.50;;;;;;;10.92;41.70;100976.38;107938;1253;69505;-67
2024/02/27 06:50:12;;;;;;;23.00;11.50;;;;;;;10.92;41.21;100973.22;108093;1254;72948;-68
2024/02/27 06:52:40;;;;;;;;;;;;;;;10.98;40.72;100975.34;108079;1253;59718;-67
2024/02/27 06:55:07;;;;;;;25.30;11.90;;;;;;;11.09;40.69;100977.35;108077;1253;59584;-68
2024/02/27 06:57:35;;;;;;;28.00;12.20;;;;;;;11.31;40.44;100971.31;108090;1253;73133;-68
2024/02/27 07:00:07;;;;;;;26.80;11.50;;;;;;;11.27;40.08;100974.59;108096;1257;70137;-67
2024/02/27 07:02:34;;;;;;;26.50;12.70;;;;;;;11.24;39.97;100981.35;107988;1253;71996;-66
2024/02/27 07:05:03;;;;;;;19.90;11.80;;;;;;;11.09;40.17;100982.61;108096;1254;59705;-67
2024/02/27 07:07:31;;;;;;;28.60;13.10;;;;;;;11.22;40.14;100974.02;108160;1253;62343;-69
2024/02/27 07:09:59;;;;;;;26.60;11.90;;;;;;;11.25;40.07;100973.59;108049;1253;71885;-68
2024/02/27 07:12:28;;;;;;;25.20;12.00;;;;;;;11.58;40.09;100969.18;108188;1253;69385;-67
2024/02/27 07:14:55;;;;;;;23.40;11.10;;;;;;;11.96;39.40;100970.42;108048;1253;71222;-67
2024/02/27 07:17:23;;;;;;;30.60;13.20;;;;;;;12.13;38.69;100973.77;108059;1253;61506;-68
2024/02/27 07:19:51;;;;;;;27.40;12.40;;;;;;;12.28;38.75;100974.56;108049;1253;60079;-68
2024/02/27 07:22:18;;;;;;;29.60;12.60;;;;;;;12.40;38.41;100978.61;108047;1253;73000;-68
2024/02/27 07:24:45;;;;;;;26.70;12.10;;;;;;;12.49;37.91;100982.36;108042;1253;69200;-66
2024/02/27 07:27:13;;;;;;;25.10;11.50;;;;;;;12.42;37.93;100984.01;108050;1253;71792;-67
2024/02/27 07:29:40;;;;;;;35.10;11.60;;;;;;;12.18;38.08;100985.27;108029;1253;59766;-67
2024/02/27 07:32:09;;;;;;;25.00;12.20;;;;;;;12.01;38.25;100981.20;108101;1253;59382;-68
2024/02/27 07:34:37;;;;;;;28.70;11.90;;;;;;;11.98;38.94;100977.21;108211;1253;72461;-67
2024/02/27 07:37:04;;;;;;;25.80;11.60;;;;;;;12.21;38.47;100979.70;108095;1253;69377;-67
2024/02/27 07:39:32;;;;;;;34.00;11.90;;;;;;;12.44;38.04;100976.00;108113;1253;72650;-66
2024/02/27 07:41:59;;;;;;;289.90;137.30;;;;;;;12.50;37.89;100975.10;108205;1253;60212;-67
2024/02/27 07:44:27;;;;;;;102.40;55.90;;;;;;;12.64;37.50;100979.08;108191;1252;59561;-68
2024/02/27 07:46:54;;;;;;;70.10;39.00;;;;;;;12.49;37.50;100983.08;108170;1253;73165;-68
2024/02/27 07:49:22;;;;;;;41.80;19.70;;;;;;;12.31;37.82;100989.79;108108;1253;68340;-69
2024/02/27 07:51:49;;;;;;;102.80;59.60;;;;;;;12.33;38.21;100988.14;108184;1256;72384;-67
2024/02/27 07:54:17;;;;;;;27.50;13.20;;;;;;;12.50;37.80;100982.01;108099;1257;59520;-67
2024/02/27 07:56:44;;;;;;;33.30;16.70;;;;;;;12.48;37.86;100982.92;108046;1253;62223;-67
2024/02/27 07:59:12;;;;;;;27.20;11.90;;;;;;;12.62;37.86;100977.91;108101;1252;72193;-67
2024/02/27 08:01:39;;;;;;;28.80;12.90;;;;;;;12.59;37.55;100976.42;108226;1251;72446;-68
2024/02/27 08:04:07;;;;;;;29.50;12.00;;;;;;;12.85;37.69;100976.13;108199;1252;71443;-68
2024/02/27 08:06:37;;;;;;;25.60;11.30;;;;;;;12.99;37.18;100974.95;108167;1253;59533;-68
2024/02/27 08:09:09;;;;;;;20.80;11.20;;;;;;;13.00;36.77;100973.67;108113;1253;62334;-67
2024/02/27 08:11:37;;;;;;;23.90;11.60;;;;;;;13.15;36.64;100977.73;108157;1253;73166;-68
2024/02/27 08:14:04;;;;;;;24.30;9.90;;;;;;;13.33;36.44;100969.77;108271;1253;73026;-69
2024/02/27 08:16:32;;;;;;;21.40;10.60;;;;;;;13.49;36.07;100974.47;108192;1253;72759;-68
2024/02/27 08:19:04;;;;;;;28.60;11.10;;;;;;;13.56;36.19;100973.88;108149;1251;60123;-67
2024/02/27 08:21:32;;;;;;;32.50;16.30;;;;;;;13.86;35.98;100968.38;108117;1252;60122;-68
2024/02/27 08:24:03;;;;;;;39.10;11.80;;;;;;;14.26;35.56;100964.39;108171;1253;71124;-67
2024/02/27 08:26:31;;;;;;;22.20;8.20;;;;;;;14.57;34.90;100963.55;108240;1253;70758;-68
2024/02/27 08:28:58;;;;;;;28.60;11.00;;;;;;;14.96;34.36;100964.41;108120;1253;72281;-69
2024/02/27 08:31:27;;;;;;;24.10;10.10;;;;;;;15.35;33.90;100959.40;108145;1251;59728;-67
2024/02/27 08:33:56;;;;;;;21.60;11.80;;;;;;;15.37;33.12;100961.59;108154;1253;60086;-71
2024/02/27 08:36:29;;;;;;;29.00;13.10;;;;;;;15.30;33.28;100966.48;107998;1253;71468;-67
2024/02/27 08:38:57;;;;;;;29.40;11.20;;;;;;;15.18;33.45;100968.76;108219;1253;69995;-67
2024/02/27 08:41:24;;;;;;;23.10;11.10;;;;;;;15.20;33.80;100971.01;108174;1253;73470;-69
2024/02/27 08:43:52;;;;;;;26.20;11.00;;;;;;;15.51;33.46;100970.71;108099;1253;60366;-68
2024/02/27 08:46:19;;;;;;;33.70;12.10;;;;;;;15.56;32.93;100973.84;108233;1253;59874;-69
2024/02/27 08:48:49;;;;;;;19.90;10.40;;;;;;;15.79;32.77;100979.09;108043;1253;75399;-69
2024/02/27 08:51:17;;;;;;;32.00;13.50;;;;;;;15.68;32.78;100970.34;108252;1253;71990;-68
2024/02/27 08:53:47;;;;;;;31.90;10.90;;;;;;;15.67;32.86;100969.14;108223;1253;72588;-68
2024/02/27 08:56:15;;;;;;;23.70;10.60;;;;;;;15.74;32.88;100967.95;108178;1253;61913;-69
2024/02/27 08:58:42;;;;;;;22.50;11.00;;;;;;;16.00;32.54;100966.23;108092;1253;61022;-67
2024/02/27 09:01:10;;;;;;;26.70;11.60;;;;;;;16.10;32.36;100968.05;108127;1253;75589;-68
2024/02/27 09:03:40;;;;;;;29.50;12.10;;;;;;;16.43;32.37;100972.20;108135;1253;71573;-68
2024/02/27 09:06:09;;;;;;;30.70;11.60;;;;;;;16.91;31.89;100974.67;108156;1257;72815;-68
2024/02/27 09:08:37;;;;;;;26.40;9.30;;;;;;;17.20;30.88;100982.08;108000;1252;60339;-68
2024/02/27 09:11:05;;;;;;;26.00;12.80;;;;;;;17.21;30.92;100978.31;108155;1253;60760;-68
2024/02/27 09:13:33;;;;;;;38.50;14.20;;;;;;;17.18;30.69;100982.14;108088;1253;73745;-68
2024/02/27 09:16:00;;;;;;;23.80;10.50;;;;;;;16.96;30.69;100979.55;108126;1253;70525;-69
2024/02/27 09:18:28;;;;;;;42.80;18.00;;;;;;;16.92;31.29;100975.49;108191;1253;72785;-69
2024/02/27 09:20:56;;;;;;;38.70;13.30;;;;;;;17.29;31.08;100975.19;108230;1253;62015;-68
2024/02/27 09:23:24;;;;;;;58.30;22.30;;;;;;;17.53;30.68;100975.56;108145;1253;60221;-67
2024/02/27 09:25:51;;;;;;;25.40;10.60;;;;;;;17.49;30.30;100971.32;107966;1253;72659;-68
2024/02/27 09:28:19;;;;;;;35.80;11.20;;;;;;;17.50;30.27;100969.68;108190;1253;70494;-67
2024/02/27 09:30:46;;;;;;;33.60;11.70;;;;;;;17.46;30.55;100967.60;108139;1253;73645;-70
2024/02/27 09:33:14;;;;;;;28.00;11.90;;;;;;;17.38;30.54;100963.58;108164;1253;62241;-68
2024/02/27 09:35:42;;;;;;;30.10;10.50;;;;;;;17.42;30.67;100960.54;108138;1253;60510;-69
2024/02/27 09:38:10;;;;;;;27.80;11.50;;;;;;;17.69;30.37;100962.48;108154;1253;74653;-69
2024/02/27 09:40:38;;;;;;;26.80;11.00;;;;;;;17.71;30.08;100958.96;107966;1252;71920;-69
2024/02/27 09:43:06;;;;;;;37.80;11.50;;;;;;;17.65;30.30;100955.92;108111;1253;74845;-67
2024/02/27 09:45:33;;;;;;;29.40;10.90;;;;;;;17.62;30.51;100955.02;107955;1258;60313;-68
2024/02/27 09:48:02;;;;;;;33.10;10.90;;;;;;;17.56;30.64;100948.93;108137;1253;60269;-68
2024/02/27 09:50:31;;;;;;;25.00;9.70;;;;;;;17.65;30.54;100947.77;108240;1253;73888;-68
2024/02/27 09:52:58;;;;;;;29.10;9.60;;;;;;;17.58;30.14;100950.13;108018;1252;69111;-66
2024/02/27 09:55:26;;;;;;;25.60;10.30;;;;;;;17.54;30.28;100950.86;108041;1258;71480;-67
2024/02/27 09:57:54;;;;;;;24.00;9.80;;;;;;;17.63;29.81;100944.87;107953;1259;60451;-68
2024/02/27 10:00:22;;;;;;;21.40;9.80;;;;;;;17.77;30.01;100945.73;108122;1252;60326;-69
2024/02/27 10:02:50;;;;;;;23.80;10.20;;;;;;;17.79;29.78;100943.30;108039;1252;76492;-67
2024/02/27 10:05:20;;;;;;;28.40;10.70;;;;;;;17.67;30.23;100936.50;108140;1253;70539;-68
2024/02/27 10:07:49;;;;;;;25.60;10.70;;;;;;;17.87;30.18;100934.69;108213;1253;75337;-68
2024/02/27 10:10:16;;;;;;;23.70;9.90;;;;;;;18.22;30.03;100929.95;108208;1253;60798;-68
2024/02/27 10:12:44;;;;;;;24.00;9.10;;;;;;;18.42;29.41;100930.77;108103;1253;60331;-69
2024/02/27 10:15:12;;;;;;;31.40;9.80;;;;;;;18.67;29.20;100930.59;107999;1253;73359;-67
2024/02/27 10:17:43;;;;;;;33.20;10.10;;;;;;;18.75;28.61;100932.25;108046;1253;69928;-68
2024/02/27 10:20:17;;;;;;;27.30;9.90;;;;;;;18.51;28.80;100932.22;108137;1253;75551;-68
2024/02/27 10:22:45;;;;;;;18.80;8.20;;;;;;;18.37;29.15;100930.89;108025;1253;60226;-65
2024/02/27 10:25:14;;;;;;;22.50;9.40;;;;;;;18.04;29.10;100927.55;108167;1253;62278;-69
2024/02/27 10:27:43;;;;;;;20.10;9.40;;;;;;;17.84;29.29;100928.46;108107;1253;76009;-67
2024/02/27 10:30:12;;;;;;;26.90;9.30;;;;;;;17.82;29.40;100926.08;108118;1253;70924;-67
2024/02/27 10:32:41;;;;;;;29.70;9.40;;;;;;;18.11;29.24;100924.69;108137;1253;72644;-67
2024/02/27 10:35:10;;;;;;;29.50;9.40;;;;;;;18.23;28.38;100924.03;108254;1256;60330;-66
2024/02/27 10:37:40;;;;;;;22.40;7.90;;;;;;;18.32;28.48;100924.20;108119;1253;60832;-68
2024/02/27 10:40:10;;;;;;;27.50;9.50;;;;;;;17.90;29.01;100930.96;108289;1254;73005;-67
2024/02/27 10:42:40;;;;;;;25.00;9.10;;;;;;;17.68;29.12;100933.91;108206;1254;70256;-67
2024/02/27 10:45:09;;;;;;;22.00;6.60;;;;;;;17.55;28.70;100949.21;108228;1252;73277;-69
2024/02/27 10:47:37;;;;;;;26.50;8.90;;;;;;;17.24;29.10;100944.27;108131;1254;61032;-68
2024/02/27 10:50:06;;;;;;;28.00;8.80;;;;;;;17.00;29.86;100936.60;108120;1253;60279;-68
2024/02/27 10:52:34;;;;;;;31.30;8.40;;;;;;;17.08;30.29;100938.70;108155;1256;74413;-68
2024/02/27 10:55:03;;;;;;;26.80;9.60;;;;;;;17.46;29.65;100934.04;108286;1253;70543;-69
2024/02/27 10:57:34;;;;;;;22.20;9.20;;;;;;;17.68;29.65;100933.07;108153;1256;71782;-68
2024/02/27 11:00:02;;;;;;;33.10;10.00;;;;;;;17.97;29.15;100929.56;108110;1253;60338;-68
2024/02/27 11:02:30;;;;;;;25.30;8.60;;;;;;;17.60;29.22;100942.17;108170;1253;62067;-68
2024/02/27 11:04:58;;;;;;;29.70;9.30;;;;;;;17.24;29.51;100940.87;108137;1254;73684;-70
2024/02/27 11:07:26;;;;;;;28.20;8.80;;;;;;;17.70;29.59;100933.13;108143;1254;72102;-68
2024/02/27 11:09:53;;;;;;;20.30;8.80;;;;;;;18.28;29.24;100930.11;108042;1253;73282;-68
2024/02/27 11:12:21;;;;;;;32.00;8.60;;;;;;;18.61;28.12;100928.41;108129;1254;60281;-68